Wetterdaten: Woche 24.09.18 - 30.09.18 (KW39)
Datum Zeit Temperatur Luftfeuchte Luftdruck Niederschlag Windrichtung Sonnenschein Solar Wind
24.09.2018 00:00 9,9 C 92 % 1019,1 hPa 0,0 l/m N-NW 0,00 h 0 W/m 9,9 km/h (2 Bft)
24.09.2018 01:00 9,6 C 92 % 1020,5 hPa 0,0 l/m N 0,00 h 0 W/m 8,2 km/h (2 Bft)
24.09.2018 02:00 9,0 C 91 % 1021,2 hPa 0,0 l/m N 0,00 h 0 W/m 11,5 km/h (2 Bft)
24.09.2018 03:00 8,4 C 91 % 1021,6 hPa 0,0 l/m N-NW 0,00 h 0 W/m 16,8 km/h (3 Bft)
24.09.2018 04:00 8,2 C 91 % 1022,6 hPa 0,0 l/m N 0,00 h 0 W/m 15,3 km/h (3 Bft)
24.09.2018 05:00 7,8 C 91 % 1023,6 hPa 0,0 l/m N 0,00 h 0 W/m 15,7 km/h (3 Bft)
24.09.2018 06:00 7,4 C 89 % 1024,6 hPa 0,0 l/m N 0,00 h 0 W/m 15,6 km/h (3 Bft)
24.09.2018 07:00 7,2 C 89 % 1026,1 hPa 0,0 l/m N-NO 0,08 h 26 W/m 9,1 km/h (2 Bft)
24.09.2018 08:00 7,4 C 88 % 1027,6 hPa 0,2 l/m N-NO 0,00 h 56 W/m 4,4 km/h (1 Bft)
24.09.2018 09:00 8,2 C 84 % 1028,8 hPa 0,0 l/m N-NO 0,17 h 168 W/m 5,1 km/h (1 Bft)
24.09.2018 10:00 8,9 C 78 % 1029,7 hPa 0,0 l/m N 0,25 h 302 W/m 9,8 km/h (2 Bft)
24.09.2018 11:00 9,9 C 70 % 1030,1 hPa 0,0 l/m N-NW 0,58 h 463 W/m 11,1 km/h (2 Bft)
24.09.2018 12:00 11,4 C 62 % 1030,3 hPa 0,0 l/m N-NO 0,50 h 488 W/m 9,9 km/h (2 Bft)
24.09.2018 13:00 12,0 C 57 % 1030,2 hPa 0,0 l/m N-NO 0,50 h 479 W/m 10,7 km/h (2 Bft)
24.09.2018 14:00 12,7 C 53 % 1030,0 hPa 0,0 l/m NO 0,58 h 539 W/m 9,9 km/h (2 Bft)
24.09.2018 15:00 13,2 C 50 % 1030,0 hPa 0,0 l/m N-NO 0,75 h 498 W/m 14,2 km/h (3 Bft)
24.09.2018 16:00 13,4 C 49 % 1029,9 hPa 0,0 l/m N-NO 0,83 h 437 W/m 7,4 km/h (2 Bft)
24.09.2018 17:00 12,5 C 51 % 1030,1 hPa 0,0 l/m NO 0,58 h 158 W/m 9,1 km/h (2 Bft)
24.09.2018 18:00 11,7 C 53 % 1030,5 hPa 0,0 l/m N-NO 0,33 h 53 W/m 5,9 km/h (2 Bft)
24.09.2018 19:00 9,2 C 68 % 1031,3 hPa 0,0 l/m N 0,08 h 8 W/m 0,4 km/h (0 Bft)
24.09.2018 20:00 7,4 C 77 % 1032,0 hPa 0,0 l/m N 0,00 h 0 W/m 0,0 km/h (0 Bft)
24.09.2018 21:00 6,4 C 81 % 1032,4 hPa 0,0 l/m N 0,00 h 0 W/m 0,0 km/h (0 Bft)
24.09.2018 22:00 5,4 C 85 % 1032,9 hPa 0,0 l/m N 0,00 h 0 W/m 0,0 km/h (0 Bft)
24.09.2018 23:00 4,7 C 85 % 1033,4 hPa 0,0 l/m N 0,00 h 0 W/m 0,0 km/h (0 Bft)
25.09.2018 00:00 4,1 C 87 % 1033,5 hPa 0,0 l/m N 0,00 h 0 W/m 0,0 km/h (0 Bft)
25.09.2018 01:00 3,6 C 88 % 1033,7 hPa 0,0 l/m N 0,00 h 0 W/m 0,0 km/h (0 Bft)
25.09.2018 02:00 3,2 C 90 % 1034,0 hPa 0,0 l/m N-NO 0,00 h 0 W/m 1,9 km/h (1 Bft)
25.09.2018 03:00 3,0 C 91 % 1034,1 hPa 0,0 l/m N 0,00 h 0 W/m 0,0 km/h (0 Bft)
25.09.2018 04:00 2,5 C 91 % 1034,3 hPa 0,0 l/m N 0,00 h 0 W/m 0,0 km/h (0 Bft)
25.09.2018 05:00 2,2 C 92 % 1034,3 hPa 0,0 l/m N-NO 0,00 h 0 W/m 1,3 km/h (1 Bft)
25.09.2018 06:00 2,3 C 93 % 1034,3 hPa 0,0 l/m N 0,00 h 0 W/m 0,0 km/h (0 Bft)
25.09.2018 07:00 2,3 C 93 % 1034,6 hPa 0,0 l/m N 0,08 h 26 W/m 0,8 km/h (0 Bft)
25.09.2018 08:00 3,6 C 94 % 1035,4 hPa 0,0 l/m N-NO 0,75 h 135 W/m 6,3 km/h (2 Bft)
25.09.2018 09:00 6,2 C 90 % 1035,9 hPa 0,0 l/m NO 1,00 h 328 W/m 12,1 km/h (2 Bft)
25.09.2018 10:00 8,4 C 79 % 1036,1 hPa 0,0 l/m O-NO 1,00 h 482 W/m 22,8 km/h (4 Bft)
25.09.2018 11:00 10,0 C 72 % 1035,7 hPa 0,0 l/m O 0,92 h 611 W/m 21,7 km/h (4 Bft)
25.09.2018 12:00 11,6 C 65 % 1035,6 hPa 0,0 l/m O-NO 1,00 h 704 W/m 22,9 km/h (4 Bft)
25.09.2018 13:00 12,7 C 57 % 1035,4 hPa 0,0 l/m O-NO 1,00 h 693 W/m 24,2 km/h (4 Bft)
25.09.2018 14:00 13,4 C 52 % 1034,8 hPa 0,0 l/m O-NO 1,00 h 642 W/m 22,6 km/h (4 Bft)
25.09.2018 15:00 13,7 C 46 % 1034,6 hPa 0,0 l/m O 1,00 h 553 W/m 24,1 km/h (4 Bft)
25.09.2018 16:00 13,6 C 46 % 1034,5 hPa 0,0 l/m O-SO 1,00 h 420 W/m 22,4 km/h (4 Bft)
25.09.2018 17:00 12,9 C 47 % 1034,5 hPa 0,0 l/m O-NO 1,00 h 246 W/m 20,5 km/h (4 Bft)
25.09.2018 18:00 11,6 C 50 % 1034,6 hPa 0,0 l/m O-NO 0,83 h 75 W/m 18,1 km/h (3 Bft)
25.09.2018 19:00 10,1 C 56 % 1034,8 hPa 0,0 l/m O-NO 0,08 h 10 W/m 13,3 km/h (3 Bft)
25.09.2018 20:00 8,8 C 62 % 1035,0 hPa 0,0 l/m O-NO 0,00 h 0 W/m 11,6 km/h (2 Bft)
25.09.2018 21:00 7,8 C 66 % 1035,4 hPa 0,0 l/m O-NO 0,00 h 0 W/m 11,0 km/h (2 Bft)
25.09.2018 22:00 6,9 C 69 % 1035,7 hPa 0,0 l/m NO 0,00 h 0 W/m 8,6 km/h (2 Bft)
25.09.2018 23:00 6,1 C 71 % 1035,5 hPa 0,0 l/m O-NO 0,00 h 0 W/m 2,5 km/h (1 Bft)
26.09.2018 00:00 5,1 C 74 % 1035,3 hPa 0,0 l/m N 0,00 h 0 W/m 0,7 km/h (0 Bft)
26.09.2018 01:00 4,2 C 77 % 1034,7 hPa 0,0 l/m N 0,00 h 0 W/m 1,7 km/h (1 Bft)
26.09.2018 02:00 3,5 C 80 % 1034,2 hPa 0,0 l/m N 0,00 h 0 W/m 0,5 km/h (0 Bft)
26.09.2018 03:00 3,0 C 82 % 1033,4 hPa 0,0 l/m N 0,00 h 0 W/m 0,3 km/h (0 Bft)
26.09.2018 04:00 2,5 C 83 % 1032,8 hPa 0,0 l/m NO 0,00 h 0 W/m 4,3 km/h (1 Bft)
26.09.2018 05:00 1,9 C 85 % 1032,8 hPa 0,0 l/m N 0,00 h 0 W/m 0,7 km/h (0 Bft)
26.09.2018 06:00 1,3 C 87 % 1032,8 hPa 0,0 l/m N 0,00 h 0 W/m 0,4 km/h (0 Bft)
26.09.2018 07:00 0,9 C 88 % 1032,9 hPa 0,0 l/m N 0,00 h 21 W/m 0,0 km/h (0 Bft)
26.09.2018 08:00 2,4 C 89 % 1033,3 hPa 0,0 l/m N 0,75 h 141 W/m 0,9 km/h (0 Bft)
26.09.2018 09:00 4,5 C 84 % 1033,9 hPa 0,0 l/m N 1,00 h 321 W/m 1,3 km/h (1 Bft)
26.09.2018 10:00 7,3 C 77 % 1034,2 hPa 0,0 l/m NO 1,00 h 484 W/m 1,7 km/h (1 Bft)
26.09.2018 11:00 11,0 C 69 % 1034,1 hPa 0,0 l/m NO 0,92 h 603 W/m 7,2 km/h (2 Bft)
26.09.2018 12:00 13,3 C 63 % 1033,7 hPa 0,0 l/m S 1,00 h 654 W/m 12,0 km/h (2 Bft)
26.09.2018 13:00 15,1 C 61 % 1033,2 hPa 0,0 l/m S 1,00 h 639 W/m 9,5 km/h (2 Bft)
26.09.2018 14:00 16,9 C 58 % 1032,9 hPa 0,0 l/m S 1,00 h 632 W/m 8,8 km/h (2 Bft)
26.09.2018 15:00 17,9 C 55 % 1032,3 hPa 0,0 l/m S-SW 1,00 h 553 W/m 8,6 km/h (2 Bft)
26.09.2018 16:00 18,2 C 54 % 1031,9 hPa 0,0 l/m S-SW 1,00 h 414 W/m 6,3 km/h (2 Bft)
26.09.2018 17:00 17,6 C 57 % 1031,7 hPa 0,0 l/m S-SW 0,92 h 193 W/m 6,3 km/h (2 Bft)
26.09.2018 18:00 15,5 C 67 % 1031,6 hPa 0,0 l/m N 0,08 h 50 W/m 0,8 km/h (0 Bft)
26.09.2018 19:00 12,8 C 76 % 1031,8 hPa 0,0 l/m N 0,08 h 7 W/m 0,0 km/h (0 Bft)
26.09.2018 20:00 11,1 C 82 % 1032,0 hPa 0,0 l/m N 0,00 h 0 W/m 0,0 km/h (0 Bft)
26.09.2018 21:00 10,1 C 83 % 1032,4 hPa 0,0 l/m N 0,00 h 0 W/m 0,0 km/h (0 Bft)
26.09.2018 22:00 9,0 C 86 % 1032,6 hPa 0,0 l/m N 0,00 h 0 W/m 0,0 km/h (0 Bft)
26.09.2018 23:00 8,0 C 87 % 1032,7 hPa 0,0 l/m N 0,00 h 0 W/m 0,0 km/h (0 Bft)
27.09.2018 00:00 7,0 C 88 % 1032,5 hPa 0,0 l/m N 0,00 h 0 W/m 0,0 km/h (0 Bft)
27.09.2018 01:00 6,3 C 90 % 1032,2 hPa 0,0 l/m N 0,00 h 0 W/m 0,0 km/h (0 Bft)
27.09.2018 02:00 5,6 C 90 % 1031,8 hPa 0,0 l/m N 0,00 h 0 W/m 0,0 km/h (0 Bft)
27.09.2018 03:00 5,1 C 91 % 1031,5 hPa 0,0 l/m N 0,00 h 0 W/m 0,0 km/h (0 Bft)
27.09.2018 04:00 4,6 C 92 % 1031,3 hPa 0,0 l/m N 0,00 h 0 W/m 0,0 km/h (0 Bft)
27.09.2018 05:00 4,1 C 92 % 1030,9 hPa 0,0 l/m N 0,00 h 0 W/m 0,0 km/h (0 Bft)
27.09.2018 06:00 3,7 C 93 % 1030,5 hPa 0,0 l/m N 0,00 h 0 W/m 0,0 km/h (0 Bft)
27.09.2018 07:00 3,2 C 93 % 1030,2 hPa 0,0 l/m N 0,08 h 19 W/m 0,0 km/h (0 Bft)
27.09.2018 08:00 4,2 C 95 % 1030,1 hPa 0,0 l/m N 0,50 h 117 W/m 0,0 km/h (0 Bft)
27.09.2018 09:00 8,2 C 94 % 1029,9 hPa 0,0 l/m N 0,92 h 310 W/m 0,0 km/h (0 Bft)
27.09.2018 10:00 12,0 C 85 % 1029,7 hPa 0,0 l/m S-SW 1,00 h 471 W/m 1,9 km/h (1 Bft)
27.09.2018 11:00 15,6 C 74 % 1029,1 hPa 0,0 l/m N 0,92 h 589 W/m 2,3 km/h (1 Bft)
27.09.2018 12:00 18,6 C 59 % 1028,2 hPa 0,0 l/m N 1,00 h 654 W/m 4,4 km/h (1 Bft)
27.09.2018 13:00 20,7 C 46 % 1027,4 hPa 0,0 l/m S-SO 1,00 h 667 W/m 5,1 km/h (1 Bft)
27.09.2018 14:00 22,3 C 43 % 1026,3 hPa 0,0 l/m S-SO 1,00 h 627 W/m 4,4 km/h (1 Bft)
27.09.2018 15:00 23,2 C 38 % 1025,2 hPa 0,0 l/m S-SO 1,00 h 536 W/m 4,4 km/h (1 Bft)
27.09.2018 16:00 23,2 C 35 % 1024,5 hPa 0,0 l/m SO 1,00 h 401 W/m 3,9 km/h (1 Bft)
27.09.2018 17:00 22,8 C 39 % 1023,9 hPa 0,0 l/m N 1,00 h 226 W/m 3,6 km/h (1 Bft)
27.09.2018 18:00 19,5 C 53 % 1023,3 hPa 0,0 l/m N 0,25 h 47 W/m 0,3 km/h (0 Bft)
27.09.2018 19:00 15,4 C 66 % 1023,1 hPa 0,0 l/m N 0,00 h 7 W/m 0,1 km/h (0 Bft)
27.09.2018 20:00 13,6 C 72 % 1023,1 hPa 0,0 l/m N 0,00 h 0 W/m 0,4 km/h (0 Bft)
27.09.2018 21:00 12,3 C 76 % 1023,0 hPa 0,0 l/m N 0,00 h 0 W/m 0,0 km/h (0 Bft)
27.09.2018 22:00 11,1 C 80 % 1022,8 hPa 0,0 l/m N 0,00 h 0 W/m 0,0 km/h (0 Bft)
27.09.2018 23:00 9,9 C 84 % 1022,5 hPa 0,0 l/m N 0,00 h 0 W/m 0,0 km/h (0 Bft)
28.09.2018 00:00 8,9 C 86 % 1022,3 hPa 0,0 l/m N 0,00 h 0 W/m 0,0 km/h (0 Bft)
28.09.2018 01:00 8,1 C 88 % 1022,2 hPa 0,0 l/m N 0,00 h 0 W/m 0,0 km/h (0 Bft)
28.09.2018 02:00 7,4 C 90 % 1022,0 hPa 0,0 l/m N 0,00 h 0 W/m 0,0 km/h (0 Bft)
28.09.2018 03:00 6,9 C 91 % 1021,4 hPa 0,0 l/m N 0,00 h 0 W/m 0,0 km/h (0 Bft)
28.09.2018 04:00 6,3 C 91 % 1021,0 hPa 0,0 l/m N 0,00 h 0 W/m 0,0 km/h (0 Bft)
28.09.2018 05:00 5,9 C 92 % 1020,5 hPa 0,0 l/m N 0,00 h 0 W/m 0,0 km/h (0 Bft)
28.09.2018 06:00 5,8 C 93 % 1020,5 hPa 0,0 l/m N 0,00 h 0 W/m 0,0 km/h (0 Bft)
28.09.2018 07:00 5,8 C 94 % 1020,4 hPa 0,0 l/m N 0,00 h 15 W/m 0,0 km/h (0 Bft)
28.09.2018 08:00 6,8 C 96 % 1020,5 hPa 0,0 l/m N 0,33 h 95 W/m 0,0 km/h (0 Bft)
28.09.2018 09:00 10,0 C 95 % 1020,6 hPa 0,0 l/m O-SO 1,00 h 301 W/m 0,9 km/h (0 Bft)
28.09.2018 10:00 14,5 C 87 % 1020,5 hPa 0,0 l/m S 1,00 h 449 W/m 8,6 km/h (2 Bft)
28.09.2018 11:00 17,8 C 75 % 1020,1 hPa 0,0 l/m S-SO 0,92 h 564 W/m 9,7 km/h (2 Bft)
28.09.2018 12:00 20,1 C 64 % 1019,5 hPa 0,0 l/m S 0,75 h 543 W/m 7,0 km/h (2 Bft)
28.09.2018 13:00 21,1 C 58 % 1018,8 hPa 0,0 l/m W 0,58 h 551 W/m 11,3 km/h (2 Bft)
28.09.2018 14:00 21,2 C 56 % 1017,9 hPa 0,0 l/m W-SW 0,17 h 277 W/m 5,6 km/h (1 Bft)
28.09.2018 15:00 20,9 C 55 % 1017,4 hPa 0,0 l/m NW 0,08 h 205 W/m 4,1 km/h (1 Bft)
28.09.2018 16:00 21,4 C 52 % 1017,1 hPa 0,0 l/m N-NO 0,75 h 330 W/m 10,0 km/h (2 Bft)
28.09.2018 17:00 20,5 C 53 % 1017,2 hPa 0,0 l/m N-NO 0,33 h 144 W/m 14,8 km/h (3 Bft)
28.09.2018 18:00 18,5 C 60 % 1017,7 hPa 0,0 l/m NO 0,00 h 31 W/m 6,3 km/h (2 Bft)
28.09.2018 19:00 17,2 C 61 % 1018,5 hPa 0,0 l/m NO 0,00 h 0 W/m 13,0 km/h (3 Bft)
28.09.2018 20:00 15,6 C 61 % 1019,4 hPa 0,0 l/m N-NO 0,00 h 0 W/m 8,2 km/h (2 Bft)
28.09.2018 21:00 15,0 C 62 % 1020,1 hPa 0,0 l/m N-NO 0,00 h 0 W/m 9,9 km/h (2 Bft)
28.09.2018 22:00 14,7 C 63 % 1020,9 hPa 0,0 l/m O-NO 0,00 h 0 W/m 16,6 km/h (3 Bft)
28.09.2018 23:00 13,5 C 69 % 1021,6 hPa 0,0 l/m NO 0,00 h 0 W/m 20,4 km/h (4 Bft)
29.09.2018 00:00 12,5 C 77 % 1022,0 hPa 0,0 l/m NO 0,00 h 0 W/m 18,2 km/h (3 Bft)
29.09.2018 01:00 11,7 C 81 % 1021,9 hPa 0,0 l/m NO 0,00 h 0 W/m 14,9 km/h (3 Bft)
29.09.2018 02:00 11,1 C 84 % 1022,4 hPa 0,0 l/m NO 0,00 h 0 W/m 15,8 km/h (3 Bft)
29.09.2018 03:00 10,4 C 85 % 1022,5 hPa 0,0 l/m NO 0,00 h 0 W/m 16,2 km/h (3 Bft)
29.09.2018 04:00 9,7 C 77 % 1022,1 hPa 0,0 l/m NO 0,00 h 0 W/m 16,0 km/h (3 Bft)
29.09.2018 05:00 9,0 C 76 % 1021,7 hPa 0,0 l/m NO 0,00 h 0 W/m 13,2 km/h (3 Bft)
29.09.2018 06:00 8,6 C 77 % 1021,6 hPa 0,0 l/m O-NO 0,00 h 0 W/m 14,6 km/h (3 Bft)
29.09.2018 07:00 7,7 C 80 % 1022,0 hPa 0,0 l/m NO 0,08 h 18 W/m 15,7 km/h (3 Bft)
29.09.2018 08:00 7,4 C 79 % 1022,4 hPa 0,0 l/m NO 0,17 h 104 W/m 16,9 km/h (3 Bft)
29.09.2018 09:00 8,6 C 77 % 1022,5 hPa 0,0 l/m O-NO 1,00 h 255 W/m 19,7 km/h (3 Bft)
29.09.2018 10:00 9,8 C 77 % 1022,5 hPa 0,0 l/m O-NO 0,58 h 264 W/m 22,7 km/h (4 Bft)
29.09.2018 11:00 10,2 C 75 % 1022,4 hPa 0,0 l/m NO 0,17 h 273 W/m 19,7 km/h (3 Bft)
29.09.2018 12:00 11,9 C 72 % 1021,8 hPa 0,0 l/m O-NO 0,75 h 593 W/m 25,2 km/h (4 Bft)
29.09.2018 13:00 14,1 C 67 % 1021,2 hPa 0,0 l/m O-NO 1,00 h 646 W/m 26,4 km/h (4 Bft)
29.09.2018 14:00 15,7 C 63 % 1020,3 hPa 0,0 l/m O-NO 1,00 h 603 W/m 27,8 km/h (4 Bft)
29.09.2018 15:00 16,2 C 61 % 1019,7 hPa 0,0 l/m O-NO 1,00 h 501 W/m 27,2 km/h (4 Bft)
29.09.2018 16:00 15,9 C 60 % 1019,4 hPa 0,0 l/m O 1,00 h 356 W/m 27,6 km/h (4 Bft)
29.09.2018 17:00 15,3 C 63 % 1019,0 hPa 0,0 l/m O 1,00 h 203 W/m 24,0 km/h (4 Bft)
29.09.2018 18:00 14,1 C 66 % 1019,1 hPa 0,0 l/m O-NO 0,17 h 38 W/m 18,0 km/h (3 Bft)
29.09.2018 19:00 12,7 C 70 % 1019,5 hPa 0,0 l/m O-NO 0,00 h 5 W/m 14,5 km/h (3 Bft)
29.09.2018 20:00 11,6 C 73 % 1019,6 hPa 0,0 l/m O-NO 0,00 h 0 W/m 12,2 km/h (2 Bft)
29.09.2018 21:00 10,7 C 74 % 1019,8 hPa 0,0 l/m NO 0,00 h 0 W/m 8,8 km/h (2 Bft)
29.09.2018 22:00 9,8 C 75 % 1019,6 hPa 0,0 l/m N 0,00 h 0 W/m 1,3 km/h (1 Bft)
29.09.2018 23:00 8,8 C 77 % 1019,3 hPa 0,0 l/m N 0,00 h 0 W/m 0,8 km/h (0 Bft)
30.09.2018 00:00 7,8 C 80 % 1019,1 hPa 0,0 l/m NO 0,00 h 0 W/m 2,1 km/h (1 Bft)
30.09.2018 01:00 6,8 C 82 % 1018,9 hPa 0,0 l/m N 0,00 h 0 W/m 0,0 km/h (0 Bft)
30.09.2018 02:00 5,9 C 84 % 1018,7 hPa 0,0 l/m N 0,00 h 0 W/m 0,1 km/h (0 Bft)
30.09.2018 03:00 5,3 C 86 % 1018,3 hPa 0,0 l/m N 0,00 h 0 W/m 0,3 km/h (0 Bft)
30.09.2018 04:00 4,8 C 87 % 1018,2 hPa 0,0 l/m N 0,00 h 0 W/m 1,2 km/h (1 Bft)
30.09.2018 05:00 4,3 C 87 % 1018,0 hPa 0,0 l/m N 0,00 h 0 W/m 0,0 km/h (0 Bft)
30.09.2018 06:00 3,6 C 88 % 1017,7 hPa 0,0 l/m N 0,00 h 0 W/m 0,0 km/h (0 Bft)
30.09.2018 07:00 3,0 C 89 % 1017,7 hPa 0,0 l/m N 0,08 h 16 W/m 0,0 km/h (0 Bft)
30.09.2018 08:00 3,6 C 91 % 1017,8 hPa 0,0 l/m N 0,58 h 109 W/m 0,0 km/h (0 Bft)
30.09.2018 09:00 5,9 C 89 % 1017,7 hPa 0,0 l/m N 0,92 h 289 W/m 0,0 km/h (0 Bft)
30.09.2018 10:00 9,9 C 83 % 1017,4 hPa 0,0 l/m NO 1,00 h 442 W/m 4,0 km/h (1 Bft)
30.09.2018 11:00 13,8 C 76 % 1017,0 hPa 0,0 l/m S-SW 0,92 h 554 W/m 8,7 km/h (2 Bft)
30.09.2018 12:00 16,8 C 69 % 1016,3 hPa 0,0 l/m S-SW 1,00 h 612 W/m 9,8 km/h (2 Bft)
30.09.2018 13:00 19,1 C 64 % 1015,2 hPa 0,0 l/m S-SW 1,00 h 620 W/m 11,7 km/h (2 Bft)
30.09.2018 14:00 20,6 C 59 % 1014,1 hPa 0,0 l/m SW 1,00 h 579 W/m 13,7 km/h (3 Bft)
30.09.2018 15:00 21,5 C 55 % 1013,4 hPa 0,0 l/m S-SW 1,00 h 522 W/m 13,6 km/h (3 Bft)
30.09.2018 16:00 21,2 C 54 % 1012,7 hPa 0,0 l/m S-SW 0,42 h 245 W/m 13,4 km/h (3 Bft)
30.09.2018 17:00 19,5 C 60 % 1012,3 hPa 0,0 l/m S-SW 0,17 h 100 W/m 6,3 km/h (2 Bft)
30.09.2018 18:00 19,0 C 63 % 1012,1 hPa 0,0 l/m S-SW 0,75 h 55 W/m 1,6 km/h (1 Bft)
30.09.2018 19:00 15,9 C 76 % 1011,9 hPa 0,0 l/m N 0,00 h 5 W/m 0,0 km/h (0 Bft)
30.09.2018 20:00 13,9 C 83 % 1011,9 hPa 0,0 l/m N 0,00 h 0 W/m 0,0 km/h (0 Bft)
30.09.2018 21:00 13,6 C 84 % 1011,6 hPa 0,0 l/m N 0,00 h 0 W/m 0,0 km/h (0 Bft)
30.09.2018 22:00 13,5 C 86 % 1011,3 hPa 0,0 l/m SW 0,00 h 0 W/m 1,3 km/h (1 Bft)
30.09.2018 23:00 14,0 C 87 % 1011,3 hPa 1,0 l/m W-SW 0,00 h 0 W/m 6,7 km/h (2 Bft)
Min-Datum _ 26.09.18 27.09.18 30.09.18 - - - - 24.09.18
_ Min-Zeit 07:30 16:10 22:45 - - - - 00:10
Minimum _ 0,8 C 34 % 1011,1 hPa - - - - 0,0 km/h (0 Bft)
Max-Datum _ 27.09.18 28.09.18 25.09.18 30.09.18 - 24.09.18 24.09.18 29.09.18
_ Max-Zeit 15:35 08:45 09:55 23:20 - 07:45 13:20 14:35
Maximum _ 23,4 C 97 % 1036,3 hPa 1,0 l/m - 0,08 h 891 W/m 38,6 km/h
O-NO (5 Bft)
Durchschnitt _ 10,6 C 75 % 1025,7 hPa #1,2 l/m O-NO #58:00 h 328 W/m 7,3 km/h (2 Bft)